Time;durP1;ratioP1;P1;durP2;ratioP2;P2;SDS_P1;SDS_P2;PMS_P1;PMS_P2;Temp;Humidity;BMP_temperature;BMP_pressure;BME280_temperature;BME280_humidity;BME280_pressure;Samples;Min_cycle;Max_cycle;Signal;HPM_P1;HPM_P2
2022/08/23 00:01:48;;;;;;;17.48;7.25;;;17.00;99.90;;;;;;5032422;28;20046;-84
2022/08/23 00:04:19;;;;;;;13.73;7.07;;;17.10;99.90;;;;;;5033041;28;20065;-85
2022/08/23 00:06:46;;;;;;;12.95;6.90;;;17.00;99.90;;;;;;5032247;28;20095;-85
2022/08/23 00:09:12;;;;;;;13.25;6.63;;;17.00;99.90;;;;;;5047707;28;20102;-85
2022/08/23 00:11:41;;;;;;;14.05;6.85;;;17.00;99.90;;;;;;5049531;28;20529;-86
2022/08/23 00:14:15;;;;;;;15.05;7.40;;;17.00;99.90;;;;;;5050768;28;20063;-85
2022/08/23 00:16:41;;;;;;;13.57;7.38;;;17.00;99.90;;;;;;5035679;28;20057;-85
2022/08/23 00:19:09;;;;;;;13.23;7.20;;;17.00;99.90;;;;;;5035767;28;20083;-90
2022/08/23 00:21:36;;;;;;;16.75;8.18;;;17.00;99.90;;;;;;5034397;28;20132;-85
2022/08/23 00:24:05;;;;;;;11.82;7.18;;;16.90;99.90;;;;;;5043132;28;20567;-86
2022/08/23 00:26:55;;;;;;;16.63;7.55;;;16.90;99.90;;;;;;5054569;28;20108;-85
2022/08/23 00:29:24;;;;;;;17.60;7.82;;;16.90;99.90;;;;;;5036650;28;20140;-84
2022/08/23 00:31:51;;;;;;;14.50;7.85;;;16.90;99.90;;;;;;5044409;28;20482;-85
2022/08/23 00:34:16;;;;;;;16.80;7.80;;;16.80;99.90;;;;;;5052091;28;20045;-86
2022/08/23 00:36:43;;;;;;;13.68;7.97;;;16.80;99.90;;;;;;5053074;28;20056;-86
2022/08/23 00:39:10;;;;;;;14.82;8.18;;;16.80;99.90;;;;;;5038842;28;20041;-86
2022/08/23 00:41:36;;;;;;;13.77;8.43;;;16.80;99.90;;;;;;5050837;28;20072;-85
2022/08/23 00:49:41;;;;;;;18.00;8.50;;;16.70;99.90;;;;;;5051499;28;20080;-85
2022/08/23 00:52:23;;;;;;;14.77;8.63;;;16.70;99.90;;;;;;5037042;28;20110;-86
2022/08/23 00:54:52;;;;;;;13.55;8.45;;;16.70;99.90;;;;;;5039117;28;20398;-85
2022/08/23 00:57:19;;;;;;;14.75;8.45;;;16.70;99.90;;;;;;5053641;28;20083;-86
2022/08/23 00:59:45;;;;;;;23.38;9.48;;;16.70;99.90;;;;;;5024502;28;20601;-86
2022/08/23 01:02:12;;;;;;;18.13;8.70;;;16.70;99.90;;;;;;5050652;28;20051;-86
2022/08/23 01:04:41;;;;;;;15.05;9.00;;;16.70;99.90;;;;;;5052026;28;20179;-86
2022/08/23 01:07:10;;;;;;;17.45;9.30;;;16.50;99.90;;;;;;5052567;28;20049;-85
2022/08/23 01:09:38;;;;;;;18.10;9.95;;;16.60;99.90;;;;;;5045662;28;20045;-88
2022/08/23 01:12:10;;;;;;;16.08;9.45;;;16.50;99.90;;;;;;5049415;28;20120;-86
2022/08/23 01:14:59;;;;;;;16.95;9.13;;;16.60;99.90;;;;;;5039806;28;20595;-86
2022/08/23 01:17:34;;;;;;;16.70;9.23;;;16.50;99.90;;;;;;5051097;28;20513;-85
2022/08/23 01:20:05;;;;;;;15.05;7.72;;;16.50;99.90;;;;;;5040021;28;20056;-85
2022/08/23 01:22:37;;;;;;;12.35;8.40;;;16.50;99.90;;;;;;5049693;28;20116;-86
2022/08/23 01:25:10;;;;;;;13.07;8.48;;;16.50;99.90;;;;;;5033865;28;20486;-86
2022/08/23 01:27:37;;;;;;;12.15;9.02;;;16.40;99.90;;;;;;5049816;28;20053;-87
2022/08/23 01:30:08;;;;;;;14.18;8.55;;;16.40;99.90;;;;;;5020915;28;20053;-85
2022/08/23 01:32:42;;;;;;;12.23;7.68;;;16.40;99.90;;;;;;5035720;28;20045;-86
2022/08/23 01:35:08;;;;;;;12.35;8.95;;;16.30;99.90;;;;;;5053846;28;20124;-91
2022/08/23 01:37:33;;;;;;;13.00;8.20;;;16.30;99.90;;;;;;5034847;28;20037;-85
2022/08/23 01:39:59;;;;;;;13.40;8.60;;;16.20;99.90;;;;;;5054315;28;20449;-86
2022/08/23 01:42:25;;;;;;;13.90;8.55;;;16.20;99.90;;;;;;5035596;28;20116;-85
2022/08/23 01:44:50;;;;;;;15.75;9.32;;;16.10;99.90;;;;;;5040224;28;20049;-86
2022/08/23 01:47:16;;;;;;;16.08;8.15;;;16.10;99.90;;;;;;5038896;28;20054;-86
2022/08/23 01:49:42;;;;;;;15.55;9.18;;;16.00;99.90;;;;;;5034276;28;20049;-86
2022/08/23 01:52:08;;;;;;;11.25;8.38;;;16.00;99.90;;;;;;5033132;28;20033;-86
2022/08/23 01:54:33;;;;;;;17.42;9.23;;;16.00;99.90;;;;;;5033158;28;20045;-87
2022/08/23 01:56:59;;;;;;;14.82;10.18;;;16.00;99.90;;;;;;5034200;28;20041;-85
2022/08/23 01:59:25;;;;;;;16.13;9.50;;;15.90;99.90;;;;;;5034011;28;20049;-86
2022/08/23 02:01:52;;;;;;;17.23;9.43;;;15.90;99.90;;;;;;5033897;28;20057;-86
2022/08/23 02:04:18;;;;;;;19.10;10.52;;;15.90;99.90;;;;;;5052465;28;20053;-87
2022/08/23 02:06:44;;;;;;;15.35;10.05;;;15.80;99.90;;;;;;5050871;28;20048;-88
2022/08/23 02:09:10;;;;;;;16.85;10.05;;;15.80;99.90;;;;;;5035250;28;20129;-86
2022/08/23 02:11:41;;;;;;;14.13;10.43;;;15.80;99.90;;;;;;5032771;28;20179;-90
2022/08/23 02:14:11;;;;;;;14.10;10.07;;;15.80;99.90;;;;;;5045132;28;20132;-87
2022/08/23 02:16:39;;;;;;;21.70;11.68;;;15.70;99.90;;;;;;5052316;28;20053;-87
2022/08/23 02:19:08;;;;;;;19.25;11.30;;;15.80;99.90;;;;;;5053299;28;20075;-86
2022/08/23 02:21:35;;;;;;;20.95;11.77;;;15.80;99.90;;;;;;5038622;28;20555;-87
2022/08/23 02:24:07;;;;;;;18.98;11.55;;;15.90;99.90;;;;;;5040021;28;20110;-86
2022/08/23 02:26:35;;;;;;;16.92;11.32;;;15.70;99.90;;;;;;5032050;28;20128;-86
2022/08/23 02:29:01;;;;;;;19.25;12.93;;;15.80;99.90;;;;;;5034529;28;20064;-86
2022/08/23 02:31:26;;;;;;;19.15;12.43;;;15.70;99.90;;;;;;5037151;28;20044;-86
2022/08/23 02:33:52;;;;;;;21.10;11.90;;;15.70;99.90;;;;;;5039765;28;20052;-86
2022/08/23 02:36:18;;;;;;;19.70;12.25;;;15.80;99.90;;;;;;5038930;28;20041;-86
2022/08/23 02:38:43;;;;;;;21.33;12.15;;;15.70;99.90;;;;;;5034642;28;20563;-86
2022/08/23 02:41:10;;;;;;;17.83;12.60;;;15.70;99.90;;;;;;5033911;28;20050;-86
2022/08/23 02:44:08;;;;;;;18.23;12.98;;;15.70;99.90;;;;;;5052857;28;20037;-86
2022/08/23 02:46:34;;;;;;;18.48;12.30;;;15.70;99.90;;;;;;5037299;28;20045;-86
2022/08/23 02:48:59;;;;;;;19.05;12.75;;;15.70;99.90;;;;;;5036507;28;20518;-86
2022/08/23 02:51:25;;;;;;;19.13;12.25;;;15.60;99.90;;;;;;5033067;28;20067;-86
2022/08/23 02:53:51;;;;;;;16.70;11.70;;;15.70;99.90;;;;;;5033260;28;20045;-86
2022/08/23 02:56:17;;;;;;;20.85;12.90;;;15.70;99.90;;;;;;5050031;28;20544;-86
2022/08/23 02:58:44;;;;;;;18.70;12.93;;;15.70;99.90;;;;;;5037663;28;20433;-86
2022/08/23 03:01:24;;;;;;;20.73;13.07;;;15.70;99.90;;;;;;5046420;28;20041;-86
2022/08/23 03:03:50;;;;;;;18.95;12.77;;;15.70;99.90;;;;;;5037432;28;20545;-85
2022/08/23 03:06:16;;;;;;;17.83;12.88;;;15.70;99.90;;;;;;5032766;28;20043;-87
2022/08/23 03:08:42;;;;;;;17.55;12.65;;;15.70;99.90;;;;;;5038147;28;20127;-86
2022/08/23 03:11:17;;;;;;;18.50;12.93;;;15.70;99.90;;;;;;5043213;28;20106;-86
2022/08/23 03:13:44;;;;;;;14.77;12.05;;;15.60;99.90;;;;;;5048961;28;20056;-87
2022/08/23 03:16:11;;;;;;;17.27;12.25;;;15.70;99.90;;;;;;5032833;28;20049;-87
2022/08/23 03:18:37;;;;;;;18.98;12.77;;;15.70;99.90;;;;;;5016813;28;20056;-87
2022/08/23 03:21:05;;;;;;;13.77;11.27;;;15.60;99.90;;;;;;5052785;28;20041;-87
2022/08/23 03:23:31;;;;;;;18.75;12.60;;;15.60;99.90;;;;;;5050717;28;20166;-89
2022/08/23 03:25:58;;;;;;;15.27;13.38;;;15.60;99.90;;;;;;5049372;28;20419;-86
2022/08/23 03:28:44;;;;;;;15.00;13.23;;;15.50;99.90;;;;;;5033267;28;20080;-86
2022/08/23 03:31:11;;;;;;;18.08;12.88;;;15.60;99.90;;;;;;5032284;28;20049;-86
2022/08/23 03:33:37;;;;;;;17.02;13.55;;;15.50;99.90;;;;;;5030874;28;20085;-90
2022/08/23 03:36:06;;;;;;;19.13;13.88;;;15.50;99.90;;;;;;5031346;28;20095;-86
2022/08/23 03:38:33;;;;;;;18.55;13.63;;;15.50;99.90;;;;;;5043345;28;20063;-86
2022/08/23 03:40:59;;;;;;;20.65;13.38;;;15.40;99.90;;;;;;5050830;28;20087;-86
2022/08/23 03:43:24;;;;;;;16.52;12.82;;;15.40;99.90;;;;;;5050152;28;20425;-86
2022/08/23 03:45:50;;;;;;;16.95;12.65;;;15.40;99.90;;;;;;5025558;28;20072;-86
2022/08/23 03:48:16;;;;;;;20.15;12.68;;;15.40;99.90;;;;;;5036164;28;20053;-86
2022/08/23 03:50:42;;;;;;;16.65;12.68;;;15.30;99.90;;;;;;5052992;28;20490;-86
2022/08/23 03:53:09;;;;;;;15.13;12.40;;;15.30;99.90;;;;;;5038294;28;20053;-88
2022/08/23 03:55:34;;;;;;;18.27;13.25;;;15.30;99.90;;;;;;5039023;28;20044;-87
2022/08/23 03:58:00;;;;;;;17.92;14.70;;;15.30;99.90;;;;;;5046593;28;20394;-86
2022/08/23 04:00:26;;;;;;;21.38;15.15;;;15.30;99.90;;;;;;5034842;28;20410;-87
2022/08/23 04:02:51;;;;;;;20.90;15.18;;;15.30;99.90;;;;;;5039734;28;20041;-87
2022/08/23 04:05:17;;;;;;;25.38;17.00;;;15.30;99.90;;;;;;5055456;28;20115;-88
2022/08/23 04:07:43;;;;;;;23.92;16.33;;;15.40;99.90;;;;;;5049353;28;20057;-86
2022/08/23 04:10:12;;;;;;;28.02;18.38;;;15.30;99.90;;;;;;5044387;28;20123;-87
2022/08/23 04:12:38;;;;;;;24.63;18.33;;;15.40;99.90;;;;;;5048835;28;20095;-87
2022/08/23 04:15:04;;;;;;;27.58;16.92;;;15.40;99.90;;;;;;5035923;28;20431;-87
2022/08/23 04:17:30;;;;;;;25.52;19.00;;;15.40;99.90;;;;;;5036315;28;20137;-87
2022/08/23 04:19:55;;;;;;;24.33;17.65;;;15.40;99.90;;;;;;5035781;28;20124;-87
2022/08/23 04:22:21;;;;;;;28.25;20.40;;;15.40;99.90;;;;;;5035985;28;20136;-86
2022/08/23 04:24:47;;;;;;;23.75;18.77;;;15.40;99.90;;;;;;5055340;28;20052;-87
2022/08/23 04:27:16;;;;;;;29.70;20.45;;;15.40;99.90;;;;;;5049781;28;20090;-86
2022/08/23 04:29:42;;;;;;;25.83;19.45;;;15.40;99.90;;;;;;5041810;28;20498;-87
2022/08/23 04:32:10;;;;;;;27.30;19.40;;;15.40;99.90;;;;;;5047489;28;20076;-86
2022/08/23 04:34:38;;;;;;;21.95;19.35;;;15.40;99.90;;;;;;5048898;28;20529;-86
2022/08/23 04:37:04;;;;;;;22.40;19.13;;;15.40;99.90;;;;;;5051942;28;20477;-86
2022/08/23 04:42:16;;;;;;;28.08;19.35;;;15.40;99.90;;;;;;5035159;28;20052;-87
2022/08/23 04:42:18;;;;;;;25.92;18.98;;;15.40;99.90;;;;;;5048690;28;20115;-86
2022/08/23 04:44:44;;;;;;;25.90;19.50;;;15.50;99.90;;;;;;5035590;28;20045;-87
2022/08/23 04:47:10;;;;;;;20.17;16.77;;;15.40;99.90;;;;;;5053248;28;20041;-87
2022/08/23 04:49:35;;;;;;;29.42;18.85;;;15.50;99.90;;;;;;5040979;28;20050;-87
2022/08/23 04:52:01;;;;;;;28.48;19.67;;;15.50;99.90;;;;;;5036278;28;20049;-87
2022/08/23 04:54:28;;;;;;;24.92;19.60;;;15.50;99.90;;;;;;5041514;28;20107;-87
2022/08/23 04:56:53;;;;;;;25.55;18.75;;;15.50;99.90;;;;;;5049976;28;20131;-87
2022/08/23 04:59:19;;;;;;;28.65;19.55;;;15.50;99.90;;;;;;5054021;28;20136;-87
2022/08/23 05:01:45;;;;;;;27.02;19.23;;;15.50;99.90;;;;;;5055074;28;20041;-86
2022/08/23 05:04:11;;;;;;;24.50;19.90;;;15.50;99.90;;;;;;5052799;28;20452;-87
2022/08/23 05:06:37;;;;;;;23.55;18.60;;;15.50;99.90;;;;;;5037485;28;20053;-88
2022/08/23 05:09:03;;;;;;;22.27;17.85;;;15.60;99.90;;;;;;5053519;28;20093;-87
2022/08/23 05:11:29;;;;;;;24.88;18.70;;;15.60;99.90;;;;;;5055195;28;20056;-86
2022/08/23 05:13:55;;;;;;;24.52;18.50;;;15.70;99.90;;;;;;5043268;28;20044;-87
2022/08/23 05:16:21;;;;;;;22.88;18.30;;;15.70;99.90;;;;;;5052909;28;20104;-86
2022/08/23 05:18:47;;;;;;;23.88;17.60;;;15.80;99.90;;;;;;5041589;28;20044;-90
2022/08/23 05:21:19;;;;;;;23.13;17.83;;;15.80;99.90;;;;;;5039335;28;20045;-88
2022/08/23 05:23:45;;;;;;;15.98;13.05;;;15.90;99.90;;;;;;5044047;28;20056;-86
2022/08/23 05:26:13;;;;;;;19.80;16.80;;;15.90;99.90;;;;;;5046517;28;20616;-88
2022/08/23 05:28:44;;;;;;;17.73;15.80;;;16.00;99.90;;;;;;5051274;28;20041;-86
2022/08/23 05:31:13;;;;;;;19.85;16.70;;;16.10;99.90;;;;;;5038631;28;20410;-87
2022/08/23 05:33:41;;;;;;;20.25;14.95;;;16.20;99.90;;;;;;5044696;28;20056;-86
2022/08/23 05:36:08;;;;;;;19.50;14.95;;;16.30;99.90;;;;;;5046503;28;20029;-87
2022/08/23 05:38:34;;;;;;;24.15;15.05;;;16.50;99.90;;;;;;5054597;28;20145;-86
2022/08/23 05:41:03;;;;;;;16.65;14.80;;;16.60;99.90;;;;;;5054160;28;20076;-85
2022/08/23 05:43:30;;;;;;;18.15;14.10;;;16.80;99.90;;;;;;5052944;28;20053;-86
2022/08/23 05:46:01;;;;;;;17.55;14.23;;;16.90;99.90;;;;;;5053194;28;20136;-86
2022/08/23 05:48:27;;;;;;;14.25;11.75;;;17.10;99.90;;;;;;5036512;28;20052;-85
2022/08/23 05:50:53;;;;;;;13.60;11.73;;;17.20;99.90;;;;;;5053058;28;20044;-85
2022/08/23 05:53:18;;;;;;;17.77;11.88;;;17.30;99.90;;;;;;5036047;28;20452;-86
2022/08/23 05:55:44;;;;;;;17.73;11.60;;;17.50;99.90;;;;;;5052580;28;20063;-84
2022/08/23 05:58:10;;;;;;;15.25;10.40;;;17.60;99.90;;;;;;5035991;28;20049;-85
2022/08/23 06:00:36;;;;;;;20.45;9.65;;;17.70;99.90;;;;;;5052546;28;20414;-86
2022/08/23 06:03:02;;;;;;;21.10;10.43;;;17.80;99.90;;;;;;5052351;28;20060;-85
2022/08/23 06:05:28;;;;;;;10.45;7.15;;;17.90;99.90;;;;;;5052581;28;20128;-85
2022/08/23 06:07:53;;;;;;;13.55;8.35;;;18.00;99.90;;;;;;5053465;28;20471;-85
2022/08/23 06:10:20;;;;;;;13.60;8.57;;;18.10;99.90;;;;;;5052581;28;20092;-85
2022/08/23 06:12:46;;;;;;;12.05;9.02;;;18.20;99.90;;;;;;5051749;28;20572;-85
2022/08/23 06:15:12;;;;;;;14.45;8.50;;;18.30;99.90;;;;;;5053578;28;20099;-86
2022/08/23 06:17:38;;;;;;;14.45;9.25;;;18.40;99.90;;;;;;5053682;28;20124;-86
2022/08/23 06:20:05;;;;;;;11.38;8.13;;;18.50;99.90;;;;;;5053554;28;20092;-88
2022/08/23 06:22:31;;;;;;;11.27;8.73;;;18.60;99.90;;;;;;5052287;28;20056;-86
2022/08/23 06:24:57;;;;;;;15.60;8.45;;;18.70;99.90;;;;;;5052504;28;20517;-85
2022/08/23 06:27:23;;;;;;;13.65;9.00;;;18.70;99.90;;;;;;5053246;28;20041;-86
2022/08/23 06:29:49;;;;;;;9.88;6.90;;;18.80;99.90;;;;;;5052480;28;20059;-86
2022/08/23 06:32:14;;;;;;;10.25;8.05;;;18.90;99.90;;;;;;5051777;28;20049;-85
2022/08/23 06:34:40;;;;;;;11.80;8.27;;;19.00;99.90;;;;;;5052268;28;20080;-88
2022/08/23 06:37:13;;;;;;;11.18;8.43;;;19.00;99.90;;;;;;5053256;28;20056;-86
2022/08/23 06:39:39;;;;;;;11.45;8.35;;;19.10;99.90;;;;;;5053009;28;20045;-86
2022/08/23 06:42:15;;;;;;;11.02;8.40;;;19.10;99.90;;;;;;5052885;28;20037;-87
2022/08/23 06:44:41;;;;;;;11.43;8.15;;;19.10;99.90;;;;;;5053040;28;20080;-86
2022/08/23 06:47:07;;;;;;;10.73;7.95;;;19.10;99.90;;;;;;5035323;28;20162;-91
2022/08/23 06:49:33;;;;;;;12.27;8.43;;;19.10;99.90;;;;;;5053325;28;20052;-86
2022/08/23 06:52:00;;;;;;;10.60;7.88;;;19.10;99.90;;;;;;5052996;28;20418;-85
2022/08/23 06:54:30;;;;;;;15.40;8.27;;;19.10;99.90;;;;;;5051840;28;20052;-86
2022/08/23 06:56:57;;;;;;;13.77;8.00;;;19.10;99.90;;;;;;5034881;28;20063;-87
2022/08/23 06:59:23;;;;;;;10.93;7.95;;;19.30;99.90;;;;;;5052974;28;20053;-85
2022/08/23 07:01:50;;;;;;;8.68;6.70;;;19.40;99.90;;;;;;5052850;28;20501;-85
2022/08/23 07:04:20;;;;;;;13.23;7.55;;;19.60;99.90;;;;;;5051965;28;20418;-84
2022/08/23 07:06:46;;;;;;;15.13;7.55;;;19.80;99.90;;;;;;5053015;28;20379;-85
2022/08/23 07:09:12;;;;;;;7.85;6.28;;;20.10;99.90;;;;;;5052780;28;20067;-83
2022/08/23 07:11:38;;;;;;;9.77;7.30;;;20.40;99.90;;;;;;5052485;28;20056;-86
2022/08/23 07:14:07;;;;;;;11.10;6.78;;;20.60;99.90;;;;;;5052736;28;20060;-85
2022/08/23 07:16:35;;;;;;;10.05;6.55;;;20.80;99.90;;;;;;5052840;28;20052;-85
2022/08/23 07:19:02;;;;;;;11.20;6.82;;;21.10;99.90;;;;;;5053326;28;20053;-83
2022/08/23 07:21:28;;;;;;;9.95;6.95;;;21.20;99.90;;;;;;5052660;28;20044;-85
2022/08/23 07:23:54;;;;;;;7.80;6.53;;;21.30;99.90;;;;;;5051531;28;20130;-86
2022/08/23 07:26:23;;;;;;;12.32;7.55;;;21.30;99.90;;;;;;5051104;28;20452;-85
2022/08/23 07:29:10;;;;;;;11.30;7.22;;;21.60;99.90;;;;;;5054833;28;20049;-86
2022/08/23 07:31:41;;;;;;;11.98;7.40;;;21.60;99.90;;;;;;5052094;28;20444;-85
2022/08/23 07:34:07;;;;;;;9.10;6.50;;;21.70;99.90;;;;;;5052687;28;20044;-86
2022/08/23 07:36:34;;;;;;;9.95;6.65;;;21.80;99.90;;;;;;5051614;28;20057;-87
2022/08/23 07:39:00;;;;;;;12.93;7.25;;;21.90;99.90;;;;;;5052635;28;20085;-86
2022/08/23 07:41:30;;;;;;;7.95;6.57;;;21.90;99.90;;;;;;5051956;28;20045;-86
2022/08/23 07:44:00;;;;;;;9.80;7.00;;;22.00;99.90;;;;;;5051495;28;20049;-84
2022/08/23 07:46:26;;;;;;;9.48;7.28;;;22.10;99.90;;;;;;5053200;28;20178;-86
2022/08/23 07:48:52;;;;;;;14.55;7.53;;;22.10;99.90;;;;;;5051317;28;20102;-86
2022/08/23 07:51:18;;;;;;;9.80;7.43;;;22.10;99.90;;;;;;5052383;28;20049;-86
2022/08/23 07:53:44;;;;;;;11.73;7.53;;;22.20;99.90;;;;;;5052227;28;20474;-85
2022/08/23 07:56:13;;;;;;;12.63;7.65;;;22.30;99.90;;;;;;5052499;28;20083;-86
2022/08/23 07:58:40;;;;;;;10.77;7.85;;;22.40;99.90;;;;;;5052331;28;20139;-84
2022/08/23 08:01:11;;;;;;;12.18;7.80;;;22.50;99.90;;;;;;5035916;28;20402;-92
2022/08/23 08:03:38;;;;;;;12.45;7.68;;;22.60;99.90;;;;;;5052935;28;20380;-88
2022/08/23 08:06:25;;;;;;;11.77;7.40;;;22.70;99.90;;;;;;5052183;28;20048;-88
2022/08/23 08:08:52;;;;;;;12.02;7.45;;;22.90;99.90;;;;;;5051897;28;20064;-86
2022/08/23 08:11:20;;;;;;;11.02;7.32;;;23.20;99.90;;;;;;5052296;28;20053;-82
2022/08/23 08:13:48;;;;;;;10.15;7.38;;;23.40;99.90;;;;;;5050758;28;20044;-87
2022/08/23 08:16:29;;;;;;;12.43;7.93;;;23.50;99.90;;;;;;5052323;28;20084;-85
2022/08/23 08:18:58;;;;;;;10.25;7.68;;;23.60;99.90;;;;;;5052312;28;20060;-87
2022/08/23 08:21:25;;;;;;;13.65;8.30;;;23.70;99.90;;;;;;5052612;28;20052;-85
2022/08/23 08:23:51;;;;;;;11.07;8.32;;;23.80;99.90;;;;;;5034724;28;20051;-85
2022/08/23 08:26:17;;;;;;;16.27;8.13;;;24.00;99.90;;;;;;5050880;28;20166;-85
2022/08/23 08:28:44;;;;;;;13.00;8.98;;;24.10;99.90;;;;;;5052297;28;20506;-87
2022/08/23 08:31:10;;;;;;;12.95;8.80;;;24.30;99.90;;;;;;5050812;28;20056;-92
2022/08/23 08:33:36;;;;;;;9.98;7.55;;;24.40;99.90;;;;;;5051005;28;20140;-86
2022/08/23 08:36:03;;;;;;;11.05;6.50;;;24.40;99.90;;;;;;5051193;28;20057;-87
2022/08/23 08:38:29;;;;;;;12.85;6.05;;;24.60;99.90;;;;;;5054629;28;20041;-85
2022/08/23 08:41:10;;;;;;;9.10;5.88;;;25.00;99.90;;;;;;5056074;28;20045;-85
2022/08/23 08:43:47;;;;;;;;;;;25.70;99.90;;;;;;5056047;28;20052;-85
2022/08/23 08:46:37;;;;;;;7.65;4.65;;;26.10;99.90;;;;;;5055689;28;19921;-86
2022/08/23 08:49:06;;;;;;;7.97;4.38;;;26.70;99.90;;;;;;5057812;28;20136;-89
2022/08/23 08:51:54;;;;;;;6.50;4.00;;;27.60;94.40;;;;;;5055833;28;20056;-85
2022/08/23 08:54:25;;;;;;;9.55;4.43;;;28.60;77.50;;;;;;5055143;28;20044;-84
2022/08/23 08:56:53;;;;;;;13.07;4.47;;;29.40;70.50;;;;;;5055274;28;20505;-85
2022/08/23 08:59:28;;;;;;;8.93;4.13;;;28.90;69.40;;;;;;5054378;28;20092;-85
2022/08/23 09:01:56;;;;;;;8.55;4.03;;;28.30;76.80;;;;;;5037836;28;20052;-85
2022/08/23 09:04:22;;;;;;;7.28;4.50;;;27.90;77.70;;;;;;5054252;28;20053;-85
2022/08/23 09:07:06;;;;;;;8.52;4.57;;;27.70;77.60;;;;;;5055387;28;20047;-85
2022/08/23 09:09:54;;;;;;;6.65;4.43;;;27.70;77.80;;;;;;5054148;28;20073;-84
2022/08/23 09:12:48;;;;;;;8.27;5.20;;;28.10;76.40;;;;;;5054030;28;20047;-85
2022/08/23 09:15:40;;;;;;;11.30;5.85;;;28.50;75.20;;;;;;5055683;28;20052;-88
2022/08/23 09:18:13;;;;;;;9.20;5.50;;;28.60;74.60;;;;;;5056833;28;20045;-85
2022/08/23 09:20:41;;;;;;;11.38;5.45;;;29.40;70.30;;;;;;5053650;28;20079;-85
2022/08/23 09:23:09;;;;;;;7.85;4.45;;;30.30;65.50;;;;;;5055229;28;20044;-84
2022/08/23 09:25:35;;;;;;;6.10;4.35;;;30.90;62.20;;;;;;5056775;28;20045;-83
2022/08/23 09:28:02;;;;;;;9.20;4.43;;;31.50;61.20;;;;;;5055894;28;20483;-85
2022/08/23 09:31:04;;;;;;;8.07;4.95;;;32.50;58.00;;;;;;5056655;28;20120;-85
2022/08/23 09:33:42;;;;;;;7.00;5.18;;;33.30;58.80;;;;;;5054741;28;20123;-85
2022/08/23 09:36:21;;;;;;;8.48;5.45;;;33.90;56.20;;;;;;5036630;28;20057;-86
2022/08/23 09:38:55;;;;;;;15.38;5.63;;;34.30;54.00;;;;;;5037433;28;20088;-86
2022/08/23 09:41:36;;;;;;;7.13;4.75;;;34.40;54.10;;;;;;5052618;28;20057;-86
2022/08/23 09:44:06;;;;;;;7.55;5.53;;;34.40;54.30;;;;;;5036440;28;20052;-86
2022/08/23 09:46:34;;;;;;;14.93;5.30;;;34.80;54.10;;;;;;5052568;28;20053;-86
2022/08/23 09:49:22;;;;;;;7.30;4.78;;;34.70;54.70;;;;;;5019513;28;20292;-86
2022/08/23 09:51:50;;;;;;;9.02;5.65;;;35.10;55.60;;;;;;5019484;28;20077;-85
2022/08/23 09:54:32;;;;;;;9.27;5.40;;;35.40;52.30;;;;;;5034742;28;20110;-86
2022/08/23 09:57:23;;;;;;;10.20;5.93;;;35.40;52.70;;;;;;5035783;28;20041;-86
2022/08/23 09:59:53;;;;;;;10.27;5.30;;;35.60;52.10;;;;;;5052030;28;20514;-85
2022/08/23 10:02:30;;;;;;;8.32;5.20;;;35.90;51.40;;;;;;5052216;28;20053;-85
2022/08/23 10:05:00;;;;;;;8.30;4.50;;;36.40;49.10;;;;;;5052267;28;20048;-90
2022/08/23 10:07:25;;;;;;;;;;;36.70;47.80;;;;;;5042811;28;20049;-85
2022/08/23 10:09:53;;;;;;;4.53;3.67;;;36.70;48.80;;;;;;5052911;28;19951;-85
2022/08/23 10:12:18;;;;;;;7.82;4.85;;;36.00;50.20;;;;;;5055335;28;20399;-85
2022/08/23 10:14:45;;;;;;;6.57;4.72;;;35.50;48.90;;;;;;5053604;28;20051;-86
2022/08/23 10:17:17;;;;;;;6.70;5.18;;;35.20;49.30;;;;;;5036355;28;20060;-85
2022/08/23 10:20:06;;;;;;;6.90;3.92;;;35.10;49.60;;;;;;5054087;28;20379;-86
2022/08/23 10:22:45;;;;;;;10.75;2.95;;;35.00;49.90;;;;;;5051202;28;20073;-86
2022/08/23 10:25:38;;;;;;;7.57;3.85;;;35.20;49.30;;;;;;5035260;28;20111;-85
2022/08/23 10:31:38;;;;;;;10.43;3.70;;;35.90;46.70;;;;;;5051307;28;20070;-85
2022/08/23 10:34:22;;;;;;;13.57;3.97;;;36.20;47.10;;;;;;5051185;28;20049;-86
2022/08/23 10:36:51;;;;;;;11.35;3.28;;;36.50;45.80;;;;;;5051324;28;20088;-85
2022/08/23 10:39:28;;;;;;;6.18;3.00;;;36.30;44.30;;;;;;5051231;28;20124;-87
2022/08/23 10:42:17;;;;;;;8.63;3.70;;;35.80;46.20;;;;;;5035912;28;20527;-85
2022/08/23 10:44:47;;;;;;;7.72;3.15;;;35.60;47.00;;;;;;5034543;28;20053;-85
2022/08/23 10:47:36;;;;;;;6.45;2.83;;;35.40;45.80;;;;;;5051074;28;20418;-87
2022/08/23 10:50:11;;;;;;;5.57;3.22;;;35.30;47.30;;;;;;5050596;28;20516;-86
2022/08/23 10:52:46;;;;;;;5.45;2.60;;;35.40;45.90;;;;;;5050702;28;20053;-86
2022/08/23 10:55:34;;;;;;;5.20;3.00;;;35.60;44.80;;;;;;5050582;28;20102;-89
2022/08/23 10:58:04;;;;;;;6.50;2.78;;;35.70;44.80;;;;;;5050932;28;20049;-85
2022/08/23 11:00:31;;;;;;;6.70;3.00;;;35.80;45.90;;;;;;5051793;28;20057;-84
2022/08/23 11:03:24;;;;;;;6.38;2.60;;;35.80;45.70;;;;;;5053483;28;20550;-86
2022/08/23 11:06:22;;;;;;;8.52;2.75;;;35.40;44.90;;;;;;5051997;28;20049;-88
2022/08/23 11:09:04;;;;;;;9.88;3.78;;;34.90;47.20;;;;;;5051625;28;20057;-86
2022/08/23 11:11:36;;;;;;;5.32;2.33;;;34.90;47.00;;;;;;5053185;28;20423;-85
2022/08/23 11:14:01;;;;;;;6.53;2.80;;;35.00;45.50;;;;;;5051739;28;20045;-87
2022/08/23 11:16:31;;;;;;;8.98;2.17;;;34.90;44.60;;;;;;5053025;28;20478;-86
2022/08/23 11:18:57;;;;;;;6.20;2.50;;;34.80;46.20;;;;;;5051681;28;20470;-85
2022/08/23 11:21:30;;;;;;;5.15;1.98;;;34.90;47.30;;;;;;5051036;28;20056;-88
2022/08/23 11:23:59;;;;;;;7.18;2.50;;;35.20;45.00;;;;;;5052715;28;20048;-85
2022/08/23 11:26:35;;;;;;;8.15;2.50;;;35.30;44.40;;;;;;5034630;28;20135;-85
2022/08/23 11:29:06;;;;;;;6.03;2.38;;;35.00;44.40;;;;;;5052557;28;20053;-85
2022/08/23 11:31:42;;;;;;;9.55;2.30;;;34.50;44.60;;;;;;5052591;28;20049;-87
2022/08/23 11:34:42;;;;;;;7.10;2.17;;;34.10;45.70;;;;;;5051373;28;20045;-87
2022/08/23 11:37:23;;;;;;;4.97;1.80;;;34.00;47.50;;;;;;5051401;28;20059;-87
2022/08/23 11:39:58;;;;;;;5.03;2.78;;;34.10;49.20;;;;;;5051556;28;20046;-86
2022/08/23 11:42:38;;;;;;;4.05;1.90;;;34.60;45.30;;;;;;5052677;28;20052;-86
2022/08/23 11:45:25;;;;;;;8.43;2.42;;;34.90;45.90;;;;;;5053021;28;20394;-84
2022/08/23 11:48:17;;;;;;;4.95;2.30;;;35.00;43.50;;;;;;5051890;28;20510;-83
2022/08/23 11:51:04;;;;;;;7.10;2.45;;;34.90;44.30;;;;;;5052747;28;20449;-86
2022/08/23 11:53:42;;;;;;;6.28;2.20;;;34.80;45.90;;;;;;5052779;28;20067;-86
2022/08/23 11:56:32;;;;;;;9.88;2.55;;;35.00;47.60;;;;;;5051700;28;20412;-88
2022/08/23 11:59:22;;;;;;;4.60;2.20;;;35.20;46.30;;;;;;5035690;28;20421;-85
2022/08/23 12:01:47;;;;;;;5.75;2.05;;;35.30;45.80;;;;;;5052978;28;20049;-85
2022/08/23 12:04:34;;;;;;;6.60;2.25;;;35.40;46.50;;;;;;5053633;28;20487;-83
2022/08/23 12:07:10;;;;;;;6.63;2.20;;;35.50;45.20;;;;;;5036423;28;20075;-84
2022/08/23 12:09:39;;;;;;;9.38;2.20;;;35.40;44.80;;;;;;5053689;28;20502;-85
2022/08/23 12:12:27;;;;;;;6.97;2.03;;;35.30;44.30;;;;;;5054818;28;20490;-86
2022/08/23 12:14:56;;;;;;;4.55;2.33;;;35.20;45.20;;;;;;5055783;28;20128;-86
2022/08/23 12:17:24;;;;;;;8.88;2.15;;;35.40;44.60;;;;;;5057037;28;20140;-86
2022/08/23 12:19:57;;;;;;;5.45;2.08;;;35.60;44.40;;;;;;5055362;28;20132;-87
2022/08/23 12:22:28;;;;;;;4.97;1.80;;;35.60;44.40;;;;;;5055786;28;20401;-86
2022/08/23 12:25:05;;;;;;;7.22;2.30;;;35.20;45.00;;;;;;5054890;28;20053;-85
2022/08/23 12:27:55;;;;;;;7.38;2.03;;;34.50;44.60;;;;;;5055447;28;20487;-88
2022/08/23 12:30:32;;;;;;;8.98;2.25;;;34.00;45.50;;;;;;5055640;28;20063;-86
2022/08/23 12:33:33;;;;;;;6.60;2.33;;;33.70;46.90;;;;;;5054045;28;20053;-84
2022/08/23 12:36:20;;;;;;;4.40;2.17;;;33.90;46.40;;;;;;5056516;28;20037;-86
2022/08/23 12:38:59;;;;;;;8.27;2.35;;;33.70;46.40;;;;;;5055530;28;20078;-86
2022/08/23 12:41:32;;;;;;;5.15;2.38;;;33.20;46.70;;;;;;5056074;28;20045;-86
2022/08/23 12:44:08;;;;;;;4.65;2.20;;;32.80;47.70;;;;;;5055620;28;20395;-87
2022/08/23 12:46:39;;;;;;;5.60;2.00;;;32.60;49.70;;;;;;5054148;28;20084;-88
2022/08/23 12:49:08;;;;;;;5.95;2.40;;;32.50;48.80;;;;;;5055348;28;20045;-83
2022/08/23 12:51:47;;;;;;;5.95;2.85;;;32.50;48.70;;;;;;5055128;28;20051;-86
2022/08/23 12:54:17;;;;;;;7.30;2.63;;;32.30;49.40;;;;;;5054480;28;20068;-86
2022/08/23 12:56:48;;;;;;;8.18;2.90;;;32.10;48.50;;;;;;5055242;28;20053;-86
2022/08/23 12:59:36;;;;;;;11.65;2.92;;;31.80;47.80;;;;;;5055163;28;20045;-85
2022/08/23 13:02:11;;;;;;;6.75;2.58;;;31.50;48.20;;;;;;5054315;28;20060;-87
2022/08/23 13:04:39;;;;;;;6.35;2.88;;;31.10;50.00;;;;;;5055374;28;20052;-86
2022/08/23 13:07:09;;;;;;;5.38;2.58;;;31.00;50.40;;;;;;5054864;28;20045;-85